createdAt,value
2018-03-22T00:01:46.677Z,74.00
2018-03-22T00:03:50.120Z,75.10
2018-03-22T00:05:52.738Z,75.10
2018-03-22T00:07:55.439Z,74.10
2018-03-22T00:09:58.829Z,76.00
2018-03-22T00:12:02.263Z,75.70
2018-03-22T00:14:05.032Z,75.60
2018-03-22T00:16:07.655Z,76.00
2018-03-22T00:18:10.285Z,74.60
2018-03-22T00:20:12.887Z,75.70
2018-03-22T00:22:38.162Z,74.60
2018-03-22T00:24:40.881Z,75.00
2018-03-22T00:26:43.525Z,74.00
2018-03-22T00:28:46.415Z,74.60
2018-03-22T00:30:49.104Z,74.60
2018-03-22T00:32:51.757Z,75.00
2018-03-22T00:34:54.426Z,75.30
2018-03-22T00:36:57.036Z,74.60
2018-03-22T00:38:59.649Z,74.30
2018-03-22T00:41:02.297Z,74.70
2018-03-22T00:43:04.943Z,75.40
2018-03-22T00:45:07.653Z,74.50
2018-03-22T00:47:10.277Z,76.30
2018-03-22T00:49:12.947Z,75.90
2018-03-22T00:51:15.620Z,74.50
2018-03-22T00:53:18.298Z,73.70
2018-03-22T00:55:20.950Z,74.90
2018-03-22T00:57:24.394Z,76.90
2018-03-22T00:59:27.018Z,76.80
2018-03-22T01:01:29.686Z,77.00
2018-03-22T01:03:32.319Z,77.30
2018-03-22T01:05:34.971Z,76.30
2018-03-22T01:07:37.666Z,77.30
2018-03-22T01:09:40.447Z,77.40
2018-03-22T01:11:43.089Z,76.20
2018-03-22T01:13:46.661Z,77.10
2018-03-22T01:15:49.345Z,77.10
2018-03-22T01:17:52.994Z,77.90
2018-03-22T01:19:55.613Z,77.90
2018-03-22T01:21:58.314Z,76.80
2018-03-22T01:24:01.773Z,76.80
2018-03-22T01:26:05.343Z,77.70
2018-03-22T01:28:08.092Z,77.60
2018-03-22T01:30:23.402Z,76.90
2018-03-22T01:32:26.045Z,77.00
2018-03-22T01:34:28.822Z,76.60
2018-03-22T01:36:31.536Z,76.30
2018-03-22T01:38:34.203Z,76.80
2018-03-22T01:40:36.835Z,77.80
2018-03-22T01:42:40.233Z,76.70
2018-03-22T01:44:42.862Z,76.70
2018-03-22T01:46:45.487Z,77.00
2018-03-22T01:48:48.968Z,77.20
2018-03-22T01:50:51.647Z,77.10
2018-03-22T01:53:06.727Z,77.00
2018-03-22T01:55:10.350Z,76.60
2018-03-22T01:57:12.986Z,76.60
2018-03-22T01:59:15.634Z,76.00
2018-03-22T02:01:18.243Z,76.60
2018-03-22T02:03:21.652Z,76.60
2018-03-22T02:05:24.332Z,76.60
2018-03-22T02:07:26.931Z,77.00
2018-03-22T02:09:29.687Z,76.50
2018-03-22T02:11:32.361Z,76.50
2018-03-22T02:13:35.022Z,76.20
2018-03-22T02:15:38.464Z,75.70
2018-03-22T02:17:41.169Z,75.60
2018-03-22T02:19:44.120Z,76.10
2018-03-22T02:21:46.847Z,76.50
2018-03-22T02:23:50.213Z,76.40
2018-03-22T02:25:53.679Z,76.90
2018-03-22T02:27:56.358Z,76.80
2018-03-22T02:29:59.027Z,76.60
2018-03-22T02:32:01.740Z,76.20
2018-03-22T02:34:04.438Z,76.70
2018-03-22T02:36:07.856Z,76.40
2018-03-22T02:38:10.608Z,76.10
2018-03-22T02:40:13.321Z,76.00
2018-03-22T02:42:16.695Z,77.10
2018-03-22T02:44:20.069Z,76.10
2018-03-22T02:46:23.531Z,76.90
2018-03-22T02:48:26.190Z,76.80
2018-03-22T02:50:28.828Z,77.00
2018-03-22T02:52:31.442Z,77.50
2018-03-22T02:54:34.064Z,77.50
2018-03-22T02:56:36.719Z,77.80
2018-03-22T02:58:39.357Z,77.20
2018-03-22T03:00:42.041Z,77.10
2018-03-22T03:02:44.697Z,77.00
2018-03-22T03:04:47.347Z,77.10
2018-03-22T03:06:50.773Z,77.10
2018-03-22T03:08:53.390Z,77.10
2018-03-22T03:10:56.041Z,78.30
2018-03-22T03:12:58.688Z,78.10
2018-03-22T03:15:01.363Z,77.00
2018-03-22T03:17:04.026Z,75.90
2018-03-22T03:19:07.438Z,76.40
2018-03-22T03:21:10.050Z,76.30
2018-03-22T03:23:12.696Z,75.00
2018-03-22T03:25:15.327Z,76.30
2018-03-22T03:27:17.972Z,77.40
2018-03-22T03:29:20.625Z,77.60
2018-03-22T03:31:23.252Z,76.60
2018-03-22T03:33:26.871Z,77.10
2018-03-22T03:35:30.258Z,75.30
2018-03-22T03:37:33.704Z,75.10
2018-03-22T03:39:36.374Z,74.90
2018-03-22T03:41:39.010Z,77.50
2018-03-22T03:43:41.654Z,77.70
2018-03-22T03:45:44.374Z,76.70
2018-03-22T03:47:46.986Z,75.80
2018-03-22T03:49:49.644Z,76.10
2018-03-22T03:51:52.268Z,76.40
2018-03-22T03:53:54.936Z,78.10
2018-03-22T03:55:57.586Z,77.90
2018-03-22T03:58:00.189Z,77.40
2018-03-22T04:00:02.888Z,77.70
2018-03-22T04:02:05.571Z,78.50
2018-03-22T04:04:09.004Z,79.40
2018-03-22T04:06:11.681Z,79.30
2018-03-22T04:08:14.310Z,77.90
2018-03-22T04:10:17.696Z,79.00
2018-03-22T04:12:21.099Z,78.70
2018-03-22T04:14:23.729Z,78.60
2018-03-22T04:16:26.406Z,78.60
2018-03-22T04:18:29.071Z,79.50
2018-03-22T04:20:31.707Z,78.90
2018-03-22T04:22:35.137Z,78.50
2018-03-22T04:24:37.752Z,78.40
2018-03-22T04:26:40.440Z,78.90
2018-03-22T04:28:43.145Z,79.60
2018-03-22T04:30:45.837Z,80.10
2018-03-22T04:32:48.518Z,80.20
2018-03-22T04:34:51.247Z,80.00
2018-03-22T04:36:54.742Z,79.60
2018-03-22T04:38:57.414Z,79.50
2018-03-22T04:41:00.832Z,80.10
2018-03-22T04:43:03.495Z,80.10
2018-03-22T04:45:06.885Z,80.00
2018-03-22T04:47:10.282Z,79.80
2018-03-22T04:49:13.717Z,79.80
2018-03-22T04:51:16.402Z,79.80
2018-03-22T04:53:19.064Z,78.50
2018-03-22T04:55:21.706Z,78.50
2018-03-22T04:57:25.080Z,78.30
2018-03-22T04:59:27.731Z,78.30
2018-03-22T05:01:30.354Z,78.00
2018-03-22T05:03:33.827Z,77.30
2018-03-22T05:05:36.468Z,77.20
2018-03-22T05:07:39.079Z,77.30
2018-03-22T05:09:41.788Z,77.90
2018-03-22T05:11:44.471Z,77.50
2018-03-22T05:13:47.876Z,79.00
2018-03-22T05:15:50.560Z,78.60
2018-03-22T05:17:53.252Z,78.30
2018-03-22T05:19:56.144Z,78.90
2018-03-22T05:21:58.927Z,79.80
2018-03-22T05:24:01.618Z,79.70
2018-03-22T05:26:05.043Z,79.00
2018-03-22T05:28:07.781Z,78.90
2018-03-22T05:30:11.368Z,80.40
2018-03-22T05:32:14.042Z,80.40
2018-03-22T05:34:16.702Z,81.30
2018-03-22T05:36:19.383Z,80.70
2018-03-22T05:38:21.989Z,81.20
2018-03-22T05:40:24.674Z,81.20
2018-03-22T05:42:28.126Z,81.40
2018-03-22T05:44:30.794Z,81.40
2018-03-22T05:46:33.446Z,81.00
2018-03-22T05:48:36.069Z,81.20
2018-03-22T05:50:38.692Z,81.90
2018-03-22T05:52:41.319Z,81.00
2018-03-22T05:54:44.047Z,81.60
2018-03-22T05:56:46.644Z,82.10
2018-03-22T05:58:49.313Z,81.90
2018-03-22T06:00:52.171Z,82.10
2018-03-22T06:02:54.782Z,80.80
2018-03-22T06:04:57.464Z,81.60
2018-03-22T06:07:00.106Z,81.40
2018-03-22T06:09:02.751Z,81.30
2018-03-22T06:11:06.193Z,80.10
2018-03-22T06:13:08.899Z,80.00
2018-03-22T06:15:11.540Z,80.20
2018-03-22T06:17:14.258Z,81.40
2018-03-22T06:19:16.937Z,81.40
2018-03-22T06:21:19.574Z,81.80
2018-03-22T06:23:22.185Z,82.20
2018-03-22T06:25:24.793Z,82.20
2018-03-22T06:27:27.458Z,81.70
2018-03-22T06:29:30.843Z,81.60
2018-03-22T06:31:34.254Z,81.40
2018-03-22T06:33:37.646Z,81.60
2018-03-22T06:35:41.026Z,82.10
2018-03-22T06:37:43.802Z,82.00
2018-03-22T06:39:47.172Z,81.60
2018-03-22T06:41:49.915Z,81.60
2018-03-22T06:43:52.576Z,80.90
2018-03-22T06:45:55.209Z,80.80
2018-03-22T06:47:58.652Z,80.60
2018-03-22T06:50:01.251Z,80.50
2018-03-22T06:52:03.945Z,80.50
2018-03-22T06:54:06.555Z,79.60
2018-03-22T06:56:10.069Z,80.10
2018-03-22T06:58:12.784Z,80.10
2018-03-22T07:00:15.480Z,80.70
2018-03-22T07:02:18.937Z,81.10
2018-03-22T07:04:21.587Z,81.00
2018-03-22T07:06:24.337Z,80.60
2018-03-22T07:08:27.080Z,79.00
2018-03-22T07:10:29.738Z,79.90
2018-03-22T07:12:32.387Z,79.00
2018-03-22T07:14:35.780Z,79.60
2018-03-22T07:16:39.154Z,80.30
2018-03-22T07:18:41.822Z,80.20
2018-03-22T07:20:44.607Z,79.60
2018-03-22T07:22:47.219Z,78.80
2018-03-22T07:24:49.854Z,79.50
2018-03-22T07:26:52.538Z,80.40
2018-03-22T07:28:55.213Z,80.40
2018-03-22T07:30:58.611Z,79.00
2018-03-22T07:33:02.065Z,78.30
2018-03-22T07:35:04.846Z,78.20
2018-03-22T07:37:07.518Z,78.20
2018-03-22T07:39:10.162Z,78.70
2018-03-22T07:41:12.811Z,79.30
2018-03-22T07:43:21.628Z,78.00
2018-03-22T07:45:24.266Z,78.10
2018-03-22T07:47:26.910Z,78.70
2018-03-22T07:49:29.550Z,78.50
2018-03-22T07:51:32.200Z,77.90
2018-03-22T07:53:34.810Z,78.50
2018-03-22T07:55:38.254Z,79.40
2018-03-22T07:57:40.866Z,79.40
2018-03-22T07:59:43.500Z,79.40
2018-03-22T08:01:46.145Z,78.90
2018-03-22T08:03:48.852Z,79.30
2018-03-22T08:05:52.440Z,79.40
2018-03-22T08:07:55.718Z,78.70
2018-03-22T08:09:58.313Z,78.70
2018-03-22T08:12:00.946Z,78.60
2018-03-22T08:14:04.302Z,78.40
2018-03-22T08:16:07.698Z,77.40
2018-03-22T08:18:10.358Z,77.40
2018-03-22T08:20:12.980Z,77.70
2018-03-22T08:22:16.459Z,77.20
2018-03-22T08:24:19.080Z,77.10
2018-03-22T08:26:21.823Z,79.10
2018-03-22T08:28:24.466Z,79.50
2018-03-22T08:30:27.089Z,78.70
2018-03-22T08:32:30.459Z,79.80
2018-03-22T08:34:33.105Z,79.20
2018-03-22T08:36:35.723Z,78.30
2018-03-22T08:38:39.174Z,77.30
2018-03-22T08:40:42.922Z,77.20
2018-03-22T08:42:46.371Z,79.00
2018-03-22T08:44:49.003Z,78.90
2018-03-22T08:46:51.722Z,76.90
2018-03-22T08:48:54.412Z,77.80
2018-03-22T08:50:57.082Z,77.50
2018-03-22T08:52:59.692Z,76.40
2018-03-22T08:55:03.092Z,76.80
2018-03-22T08:57:06.486Z,76.20
2018-03-22T08:59:09.892Z,76.70
2018-03-22T09:01:12.539Z,76.70
2018-03-22T09:03:15.214Z,76.00
2018-03-22T09:05:17.856Z,75.40
2018-03-22T09:07:20.471Z,77.50
2018-03-22T09:09:23.905Z,75.20
2018-03-22T09:11:27.621Z,74.50
2018-03-22T09:13:30.259Z,74.40
2018-03-22T09:15:33.088Z,75.40
2018-03-22T09:17:35.758Z,76.60
2018-03-22T09:19:38.375Z,76.40
2018-03-22T09:21:42.447Z,70.60
2018-03-22T09:23:45.092Z,70.70
2018-03-22T09:25:47.796Z,67.80
2018-03-22T09:27:52.334Z,67.00
2018-03-22T09:29:55.557Z,68.50
2018-03-22T09:31:58.317Z,65.10
2018-03-22T09:34:01.273Z,63.60
2018-03-22T09:36:04.658Z,54.90
2018-03-22T09:38:07.343Z,54.80
2018-03-22T09:40:09.945Z,58.50
2018-03-22T09:42:12.615Z,54.00
2018-03-22T09:44:15.241Z,53.80
2018-03-22T09:46:17.843Z,54.40
2018-03-22T09:48:20.478Z,58.00
2018-03-22T09:50:23.241Z,52.20
2018-03-22T09:52:26.667Z,47.90
2018-03-22T09:54:29.293Z,47.90
2018-03-22T09:56:31.903Z,48.70
2018-03-22T09:58:34.782Z,46.40
2018-03-22T10:00:37.390Z,45.20
2018-03-22T10:02:40.005Z,42.60
2018-03-22T10:04:43.397Z,41.80
2018-03-22T10:06:46.075Z,41.70
2018-03-22T10:08:50.635Z,38.30
2018-03-22T10:10:53.266Z,38.30
2018-03-22T10:12:55.888Z,38.20
2018-03-22T10:14:58.599Z,39.00
2018-03-22T10:17:01.224Z,38.70
2018-03-22T10:19:03.835Z,38.20
2018-03-22T10:21:06.478Z,36.00
2018-03-22T10:23:09.944Z,36.90
2018-03-22T10:25:13.343Z,37.60
2018-03-22T10:27:16.064Z,38.10
2018-03-22T10:29:18.695Z,37.60
2018-03-22T10:31:22.082Z,38.70
2018-03-22T10:33:25.546Z,38.80
2018-03-22T10:35:28.261Z,38.80
2018-03-22T10:37:31.662Z,39.00
2018-03-22T10:39:34.401Z,39.00
2018-03-22T10:41:37.034Z,38.40
2018-03-22T10:43:39.657Z,38.40
2018-03-22T10:45:42.290Z,39.00
2018-03-22T10:47:45.001Z,39.10
2018-03-22T10:49:48.424Z,39.90
2018-03-22T10:51:51.067Z,39.90
2018-03-22T10:53:53.714Z,38.70
2018-03-22T10:55:56.326Z,39.00
2018-03-22T10:57:58.968Z,38.80
2018-03-22T11:00:01.598Z,38.80
2018-03-22T11:02:04.997Z,37.40
2018-03-22T11:04:08.376Z,38.20
2018-03-22T11:06:10.984Z,38.00
2018-03-22T11:08:13.638Z,37.80
2018-03-22T11:10:17.030Z,37.10
2018-03-22T11:12:20.440Z,37.00
2018-03-22T11:14:23.078Z,37.00
2018-03-22T11:16:26.566Z,39.10
2018-03-22T11:18:29.264Z,36.90
2018-03-22T11:20:32.016Z,37.40
2018-03-22T11:22:34.711Z,36.90
2018-03-22T11:24:37.335Z,38.10
2018-03-22T11:26:40.024Z,38.90
2018-03-22T11:28:42.650Z,38.80
2018-03-22T11:30:46.060Z,39.90
2018-03-22T11:32:49.443Z,40.10
2018-03-22T11:34:52.839Z,39.50
2018-03-22T11:36:55.471Z,39.60
2018-03-22T11:38:58.086Z,39.90
2018-03-22T11:41:01.501Z,41.80
2018-03-22T11:43:04.906Z,40.60
2018-03-22T11:45:07.566Z,40.50
2018-03-22T11:47:10.214Z,40.70
2018-03-22T11:49:12.871Z,41.60
2018-03-22T11:51:15.562Z,42.80
2018-03-22T11:53:18.178Z,42.10
2018-03-22T11:55:20.860Z,42.10
2018-03-22T11:57:23.727Z,42.30
2018-03-22T11:59:26.437Z,45.10
2018-03-22T12:01:29.153Z,41.80
2018-03-22T12:03:31.786Z,42.10
2018-03-22T12:05:34.475Z,42.20
2018-03-22T12:07:37.123Z,42.80
2018-03-22T12:09:39.742Z,42.00
2018-03-22T12:11:42.373Z,43.30
2018-03-22T12:13:45.016Z,43.70
2018-03-22T12:15:48.526Z,43.80
2018-03-22T12:17:51.377Z,43.80
2018-03-22T12:19:54.822Z,43.60
2018-03-22T12:21:57.517Z,43.50
2018-03-22T12:24:00.162Z,43.00
2018-03-22T12:26:02.818Z,43.70
2018-03-22T12:28:06.296Z,43.90
2018-03-22T12:30:08.935Z,43.70
2018-03-22T12:32:11.560Z,44.80
2018-03-22T12:34:15.006Z,45.30
2018-03-22T12:36:17.625Z,45.20
2018-03-22T12:38:21.075Z,45.40
2018-03-22T12:40:23.778Z,45.40
2018-03-22T12:42:27.914Z,48.30
2018-03-22T12:44:30.639Z,48.10
2018-03-22T12:46:33.333Z,46.90
2018-03-22T12:48:35.951Z,46.70
2018-03-22T12:50:39.428Z,49.00
2018-03-22T12:52:42.886Z,49.40
2018-03-22T12:54:46.339Z,49.70
2018-03-22T12:56:48.939Z,49.60
2018-03-22T12:58:51.951Z,49.90
2018-03-22T13:00:54.582Z,49.40
2018-03-22T13:02:57.231Z,49.60
2018-03-22T13:05:00.596Z,51.40
2018-03-22T13:07:03.206Z,51.40
2018-03-22T13:09:06.599Z,55.70
2018-03-22T13:11:09.989Z,58.60
2018-03-22T13:13:13.358Z,60.40
2018-03-22T13:15:15.998Z,60.40
2018-03-22T13:17:18.619Z,63.30
2018-03-22T13:19:21.258Z,65.00
2018-03-22T13:21:23.870Z,66.60
2018-03-22T13:23:26.496Z,66.60
2018-03-22T13:25:29.139Z,67.50
2018-03-22T13:27:31.746Z,65.90
2018-03-22T13:29:34.380Z,66.70
2018-03-22T13:31:37.827Z,68.60
2018-03-22T13:33:40.474Z,68.50
2018-03-22T13:35:43.111Z,68.00
2018-03-22T13:37:45.699Z,67.30
2018-03-22T13:39:48.540Z,68.40
2018-03-22T13:41:51.164Z,69.90
2018-03-22T13:43:54.556Z,66.50
2018-03-22T13:45:58.759Z,66.40
2018-03-22T13:48:01.402Z,66.00
2018-03-22T13:50:04.066Z,64.50
2018-03-22T13:52:06.699Z,64.80
2018-03-22T13:54:09.317Z,65.90
2018-03-22T13:56:11.927Z,64.90
2018-03-22T13:58:14.611Z,66.60
2018-03-22T14:00:18.034Z,66.80
2018-03-22T14:02:20.647Z,66.70
2018-03-22T14:04:23.275Z,67.10
2018-03-22T14:06:26.022Z,68.30
2018-03-22T14:08:28.769Z,66.40
2018-03-22T14:10:31.386Z,66.80
2018-03-22T14:12:34.032Z,66.30
2018-03-22T14:14:36.834Z,67.00
2018-03-22T14:16:39.446Z,66.60
2018-03-22T14:18:42.123Z,68.40
2018-03-22T14:20:44.763Z,68.20
2018-03-22T14:22:48.159Z,71.10
2018-03-22T14:24:51.563Z,73.60
2018-03-22T14:26:54.992Z,74.30
2018-03-22T14:28:58.544Z,76.60
2018-03-22T14:31:01.922Z,77.20
2018-03-22T14:33:04.552Z,77.20
2018-03-22T14:35:07.266Z,78.50
2018-03-22T14:37:09.864Z,79.30
2018-03-22T14:39:13.403Z,81.50
2018-03-22T14:41:16.078Z,81.60
2018-03-22T14:43:18.718Z,80.50
2018-03-22T14:45:22.117Z,80.90
2018-03-22T14:47:25.520Z,80.40
2018-03-22T14:49:28.178Z,80.40
2018-03-22T14:51:31.563Z,82.70
2018-03-22T14:53:34.957Z,82.70
2018-03-22T14:55:38.385Z,83.50
2018-03-22T14:57:41.020Z,83.40
2018-03-22T14:59:44.422Z,84.50
2018-03-22T15:01:47.070Z,83.90
2018-03-22T15:03:49.711Z,83.70
2018-03-22T15:05:52.353Z,82.10
2018-03-22T15:07:55.793Z,82.50
2018-03-22T15:09:58.433Z,82.50
2018-03-22T15:12:01.079Z,81.80
2018-03-22T15:14:03.711Z,84.10
2018-03-22T15:16:06.371Z,83.90
2018-03-22T15:18:09.069Z,83.60
2018-03-22T15:20:11.720Z,85.30
2018-03-22T15:22:14.398Z,84.10
2018-03-22T15:24:17.014Z,85.00
2018-03-22T15:26:19.647Z,86.30
2018-03-22T15:28:22.315Z,87.50
2018-03-22T15:30:24.974Z,88.50
2018-03-22T15:32:28.381Z,88.00
2018-03-22T15:34:31.014Z,87.30
2018-03-22T15:36:33.644Z,89.70
2018-03-22T15:38:36.297Z,90.10
2018-03-22T15:40:39.731Z,90.10
2018-03-22T15:42:42.359Z,90.10
2018-03-22T15:44:45.018Z,90.00
2018-03-22T15:46:47.678Z,89.20
2018-03-22T15:48:50.302Z,89.50
2018-03-22T15:50:53.734Z,88.40
2018-03-22T15:52:56.350Z,88.40
2018-03-22T15:54:59.043Z,87.80
2018-03-22T15:57:02.410Z,85.90
2018-03-22T15:59:05.043Z,85.90
2018-03-22T16:01:07.738Z,86.20
2018-03-22T16:03:10.390Z,85.30
2018-03-22T16:05:13.109Z,86.20
2018-03-22T16:07:15.739Z,87.60
2018-03-22T16:09:18.477Z,85.70
2018-03-22T16:11:21.111Z,84.70
2018-03-22T16:13:23.851Z,86.70
2018-03-22T16:15:27.277Z,86.60
2018-03-22T16:17:30.644Z,88.10
2018-03-22T16:19:33.243Z,88.00
2018-03-22T16:21:35.872Z,86.00
2018-03-22T16:23:38.462Z,84.50
2018-03-22T16:25:41.883Z,84.90
2018-03-22T16:27:44.541Z,84.90
2018-03-22T16:29:47.171Z,85.10
2018-03-22T16:31:49.835Z,85.40
2018-03-22T16:33:52.449Z,85.60
2018-03-22T16:35:55.894Z,88.10
2018-03-22T16:37:58.523Z,88.00
2018-03-22T16:40:01.912Z,88.30
2018-03-22T16:42:05.285Z,89.30
2018-03-22T16:44:07.937Z,89.20
2018-03-22T16:46:10.569Z,90.20
2018-03-22T16:48:14.435Z,90.60
2018-03-22T16:50:17.060Z,90.30
2018-03-22T16:52:19.677Z,90.30
2018-03-22T16:54:22.318Z,90.30
2018-03-22T16:56:24.970Z,90.40
2018-03-22T16:58:28.401Z,91.10
2018-03-22T17:00:31.849Z,91.00
2018-03-22T17:02:34.561Z,91.00
2018-03-22T17:04:37.178Z,91.50
2018-03-22T17:06:39.793Z,91.40
2018-03-22T17:08:42.439Z,91.80
2018-03-22T17:10:45.077Z,91.80
2018-03-22T17:12:47.766Z,91.90
2018-03-22T17:14:50.432Z,92.00
2018-03-22T17:16:53.158Z,91.70
2018-03-22T17:18:55.859Z,91.30
2018-03-22T17:20:58.511Z,91.70
2018-03-22T17:23:01.205Z,91.80
2018-03-22T17:25:03.810Z,92.00
2018-03-22T17:27:06.446Z,92.00
2018-03-22T17:29:09.847Z,92.20
2018-03-22T17:31:12.481Z,92.20
2018-03-22T17:33:15.110Z,92.20
2018-03-22T17:35:17.834Z,92.40
2018-03-22T17:37:20.459Z,92.20
2018-03-22T17:39:23.163Z,92.10
2018-03-22T17:41:25.819Z,92.30
2018-03-22T17:43:28.446Z,92.30
2018-03-22T17:45:31.837Z,91.70
2018-03-22T17:47:35.267Z,92.20
2018-03-22T17:49:38.006Z,92.00
2018-03-22T17:51:40.657Z,91.80
2018-03-22T17:53:43.287Z,91.80
2018-03-22T17:55:45.933Z,91.90
2018-03-22T17:57:48.552Z,91.60
2018-03-22T17:59:51.279Z,91.80
2018-03-22T18:01:53.987Z,91.80
2018-03-22T18:03:57.393Z,91.80
2018-03-22T18:06:00.157Z,91.80
2018-03-22T18:08:02.856Z,92.00
2018-03-22T18:10:05.531Z,91.10
2018-03-22T18:12:08.172Z,91.80
2018-03-22T18:14:13.097Z,91.50
2018-03-22T18:16:16.558Z,91.20
2018-03-22T18:18:19.262Z,91.20
2018-03-22T18:20:22.724Z,91.60
2018-03-22T18:22:25.412Z,91.60
2018-03-22T18:24:28.876Z,92.20
2018-03-22T18:26:31.574Z,92.10
2018-03-22T18:28:34.271Z,91.90
2018-03-22T18:30:37.049Z,91.60
2018-03-22T18:32:40.014Z,91.60
2018-03-22T18:34:42.956Z,91.10
2018-03-22T18:36:45.729Z,91.60
2018-03-22T18:38:49.390Z,91.70
2018-03-22T18:40:52.173Z,91.70
2018-03-22T18:42:54.986Z,91.10
2018-03-22T18:44:57.763Z,91.60
2018-03-22T18:47:01.327Z,91.40
2018-03-22T18:49:15.993Z,91.30
2018-03-22T18:51:20.633Z,91.30
2018-03-22T18:53:23.265Z,91.50
2018-03-22T18:55:25.921Z,91.30
2018-03-22T18:57:28.623Z,91.30
2018-03-22T18:59:31.294Z,91.50
2018-03-22T19:01:33.932Z,90.90
2018-03-22T19:03:36.686Z,91.60
2018-03-22T19:05:39.444Z,91.50
2018-03-22T19:07:42.074Z,91.90
2018-03-22T19:09:44.683Z,92.20
2018-03-22T19:11:47.347Z,91.90
2018-03-22T19:13:50.126Z,91.80
2018-03-22T19:15:52.772Z,92.20
2018-03-22T19:17:56.176Z,92.20
2018-03-22T19:19:58.856Z,92.20
2018-03-22T19:22:01.554Z,92.20
2018-03-22T19:24:04.172Z,92.30
2018-03-22T19:26:06.878Z,91.90
2018-03-22T19:28:09.517Z,92.00
2018-03-22T19:30:12.229Z,91.80
2018-03-22T19:32:14.861Z,92.20
2018-03-22T19:34:17.522Z,92.20
2018-03-22T19:36:20.159Z,92.50
2018-03-22T19:38:22.814Z,92.70
2018-03-22T19:40:25.471Z,92.70
2018-03-22T19:42:28.126Z,92.90
2018-03-22T19:44:30.787Z,93.00
2018-03-22T19:46:33.441Z,92.80
2018-03-22T19:48:36.106Z,92.80
2018-03-22T19:50:38.833Z,92.90
2018-03-22T19:52:41.478Z,93.10
2018-03-22T19:54:44.973Z,93.10
2018-03-22T19:56:47.606Z,93.10
2018-03-22T19:58:50.259Z,93.00
2018-03-22T20:00:52.916Z,93.00
2018-03-22T20:02:55.589Z,92.70
2018-03-22T20:04:58.262Z,92.70
2018-03-22T20:07:00.920Z,92.70
2018-03-22T20:09:03.967Z,92.70
2018-03-22T20:11:07.616Z,92.50
2018-03-22T20:13:10.278Z,92.50
2018-03-22T20:15:13.013Z,92.50
2018-03-22T20:17:16.515Z,92.40
2018-03-22T20:19:19.217Z,92.40
2018-03-22T20:21:21.881Z,92.20
2018-03-22T20:23:25.354Z,92.60
2018-03-22T20:25:28.025Z,92.50
2018-03-22T20:27:30.722Z,92.60
2018-03-22T20:29:33.362Z,92.80
2018-03-22T20:31:36.041Z,93.20
2018-03-22T20:33:38.821Z,93.30
2018-03-22T20:35:41.466Z,93.40
2018-03-22T20:37:44.181Z,93.40
2018-03-22T20:39:46.817Z,93.20
2018-03-22T20:41:49.517Z,93.50
2018-03-22T20:43:52.166Z,93.60
2018-03-22T20:45:54.845Z,93.40
2018-03-22T20:47:57.546Z,93.80
2018-03-22T20:50:01.559Z,93.90
2018-03-22T20:52:04.201Z,93.80
2018-03-22T20:54:07.171Z,93.80
2018-03-22T20:56:09.937Z,93.70
2018-03-22T20:58:12.661Z,93.70
2018-03-22T21:00:15.342Z,93.80
2018-03-22T21:02:18.254Z,93.90
2018-03-22T21:04:21.124Z,94.10
2018-03-22T21:06:24.174Z,94.20
2018-03-22T21:08:27.045Z,94.00
2018-03-22T21:10:29.966Z,94.00
2018-03-22T21:12:32.923Z,94.20
2018-03-22T21:14:35.635Z,94.40
2018-03-22T21:16:38.281Z,94.80
2018-03-22T21:18:40.953Z,94.90
2018-03-22T21:20:43.646Z,95.00
2018-03-22T21:22:47.229Z,95.20
2018-03-22T21:24:50.003Z,95.20
2018-03-22T21:26:53.460Z,95.20
2018-03-22T21:28:56.872Z,95.20
2018-03-22T21:31:00.331Z,95.00
2018-03-22T21:33:02.946Z,95.00
2018-03-22T21:35:05.615Z,95.00
2018-03-22T21:37:08.526Z,94.70
2018-03-22T21:39:11.186Z,94.80
2018-03-22T21:41:13.924Z,94.70
2018-03-22T21:43:18.364Z,95.00
2018-03-22T21:45:21.023Z,94.90
2018-03-22T21:47:31.567Z,94.90
2018-03-22T21:49:34.223Z,94.90
2018-03-22T21:51:36.872Z,95.50
2018-03-22T21:53:39.504Z,95.80
2018-03-22T21:55:42.187Z,95.90
2018-03-22T21:57:44.794Z,95.70
2018-03-22T21:59:47.483Z,95.60
2018-03-22T22:01:50.128Z,95.30
2018-03-22T22:03:53.568Z,95.50
2018-03-22T22:05:56.206Z,95.50
2018-03-22T22:07:58.827Z,95.40
2018-03-22T22:10:01.490Z,95.50
2018-03-22T22:12:04.942Z,95.10
2018-03-22T22:14:08.354Z,95.20
2018-03-22T22:16:10.979Z,95.20
2018-03-22T22:18:13.578Z,95.00
2018-03-22T22:20:16.975Z,95.00
2018-03-22T22:22:20.362Z,94.90
2018-03-22T22:24:23.000Z,94.80
2018-03-22T22:26:25.657Z,94.90
2018-03-22T22:28:28.279Z,94.90
2018-03-22T22:30:31.044Z,94.90
2018-03-22T22:32:33.667Z,94.90
2018-03-22T22:34:36.290Z,94.90
2018-03-22T22:36:39.069Z,94.90
2018-03-22T22:38:41.820Z,94.90
2018-03-22T22:40:44.429Z,94.80
2018-03-22T22:42:47.095Z,94.80
2018-03-22T22:44:49.729Z,94.90
2018-03-22T22:46:52.353Z,95.20
2018-03-22T22:48:54.998Z,95.50
2018-03-22T22:50:57.610Z,95.70
2018-03-22T22:53:00.246Z,95.70
2018-03-22T22:55:02.861Z,95.70
2018-03-22T22:57:05.465Z,95.80
2018-03-22T22:59:08.859Z,95.50
2018-03-22T23:01:12.338Z,95.40
2018-03-22T23:03:15.757Z,95.30
2018-03-22T23:05:18.407Z,95.30
2018-03-22T23:07:21.780Z,95.60
2018-03-22T23:09:24.794Z,95.60
2018-03-22T23:11:28.182Z,95.90
2018-03-22T23:13:31.611Z,95.70
2018-03-22T23:15:34.250Z,95.70
2018-03-22T23:17:37.622Z,95.80
2018-03-22T23:19:40.232Z,95.80
2018-03-22T23:21:43.627Z,95.90
2018-03-22T23:23:46.280Z,95.80
2018-03-22T23:25:49.687Z,96.20
2018-03-22T23:27:53.075Z,96.30
2018-03-22T23:29:56.456Z,96.50
2018-03-22T23:31:59.144Z,96.50
2018-03-22T23:34:02.528Z,96.40
2018-03-22T23:36:05.173Z,96.30
2018-03-22T23:38:07.766Z,96.40
2018-03-22T23:40:10.522Z,96.10
2018-03-22T23:42:13.183Z,96.00
2018-03-22T23:44:15.787Z,96.00
2018-03-22T23:46:18.442Z,96.30
2018-03-22T23:48:21.075Z,96.20
2018-03-22T23:50:24.506Z,96.20
2018-03-22T23:52:27.141Z,96.20
2018-03-22T23:54:30.558Z,96.00
2018-03-22T23:56:33.580Z,96.00
2018-03-22T23:58:36.202Z,96.10
